sensor_id;sensor_type;location;lat;lon;timestamp;pressure;altitude;pressure_sealevel;temperature;humidity
76594;BME280;65482;50.240;14.302;2023-10-13T00:01:25;99560.41;;;16.15;75.70
76594;BME280;65482;50.240;14.302;2023-10-13T00:03:50;99557.75;;;16.15;75.60
76594;BME280;65482;50.240;14.302;2023-10-13T00:06:20;99562.91;;;16.16;75.47
76594;BME280;65482;50.240;14.302;2023-10-13T00:08:45;99557.56;;;16.16;75.51
76594;BME280;65482;50.240;14.302;2023-10-13T00:11:14;99555.91;;;16.15;75.46
76594;BME280;65482;50.240;14.302;2023-10-13T00:13:41;99556.75;;;16.16;75.48
76594;BME280;65482;50.240;14.302;2023-10-13T00:16:21;99560.22;;;16.16;75.36
76594;BME280;65482;50.240;14.302;2023-10-13T00:18:51;99557.56;;;16.16;75.40
76594;BME280;65482;50.240;14.302;2023-10-13T00:21:20;99562.06;;;16.16;75.32
76594;BME280;65482;50.240;14.302;2023-10-13T00:23:57;99563.09;;;16.15;75.44
76594;BME280;65482;50.240;14.302;2023-10-13T00:26:25;99561.22;;;16.15;75.75
76594;BME280;65482;50.240;14.302;2023-10-13T00:28:54;99560.22;;;16.16;75.57
76594;BME280;65482;50.240;14.302;2023-10-13T00:31:36;99557.75;;;16.15;75.68
76594;BME280;65482;50.240;14.302;2023-10-13T00:34:04;99557.94;;;16.13;75.66
76594;BME280;65482;50.240;14.302;2023-10-13T00:36:36;99554.88;;;16.09;75.84
76594;BME280;65482;50.240;14.302;2023-10-13T00:39:02;99569.81;;;16.10;75.74
76594;BME280;65482;50.240;14.302;2023-10-13T00:41:31;99559.59;;;16.14;75.44
76594;BME280;65482;50.240;14.302;2023-10-13T00:44:16;99566.56;;;16.15;75.36
76594;BME280;65482;50.240;14.302;2023-10-13T00:46:43;99564.53;;;16.17;75.38
76594;BME280;65482;50.240;14.302;2023-10-13T00:49:12;99560.84;;;16.18;75.31
76594;BME280;65482;50.240;14.302;2023-10-13T00:51:42;99568.44;;;16.21;75.05
76594;BME280;65482;50.240;14.302;2023-10-13T00:54:13;99572.13;;;16.20;75.14
76594;BME280;65482;50.240;14.302;2023-10-13T00:56:40;99579.06;;;16.21;75.23
76594;BME280;65482;50.240;14.302;2023-10-13T00:59:23;99573.97;;;16.20;75.06
76594;BME280;65482;50.240;14.302;2023-10-13T01:01:53;99571.09;;;16.21;75.24
76594;BME280;65482;50.240;14.302;2023-10-13T01:04:21;99575.59;;;16.21;75.35
76594;BME280;65482;50.240;14.302;2023-10-13T01:06:48;99581.97;;;16.20;75.20
76594;BME280;65482;50.240;14.302;2023-10-13T01:09:14;99574.97;;;16.19;75.30
76594;BME280;65482;50.240;14.302;2023-10-13T01:11:49;99588.91;;;16.21;75.16
76594;BME280;65482;50.240;14.302;2023-10-13T01:14:21;99592.88;;;16.32;75.00
76594;BME280;65482;50.240;14.302;2023-10-13T01:16:49;99594.84;;;16.23;75.17
76594;BME280;65482;50.240;14.302;2023-10-13T01:19:18;99598.75;;;16.20;75.12
76594;BME280;65482;50.240;14.302;2023-10-13T01:21:48;99599.38;;;16.22;75.07
76594;BME280;65482;50.240;14.302;2023-10-13T01:24:14;99584.81;;;16.18;75.21
76594;BME280;65482;50.240;14.302;2023-10-13T01:26:43;99589.09;;;16.19;75.30
76594;BME280;65482;50.240;14.302;2023-10-13T01:29:09;99589.94;;;16.20;75.23
76594;BME280;65482;50.240;14.302;2023-10-13T01:31:44;99588.09;;;16.20;75.11
76594;BME280;65482;50.240;14.302;2023-10-13T01:34:18;99588.09;;;16.20;74.93
76594;BME280;65482;50.240;14.302;2023-10-13T01:36:53;99589.94;;;16.20;75.20
76594;BME280;65482;50.240;14.302;2023-10-13T01:39:20;99589.50;;;16.16;75.32
76594;BME280;65482;50.240;14.302;2023-10-13T01:41:47;99589.09;;;16.19;75.15
76594;BME280;65482;50.240;14.302;2023-10-13T01:44:19;99590.72;;;16.14;75.26
76594;BME280;65482;50.240;14.302;2023-10-13T01:46:45;99583.56;;;16.14;75.23
76594;BME280;65482;50.240;14.302;2023-10-13T01:49:13;99588.88;;;16.14;75.40
76594;BME280;65482;50.240;14.302;2023-10-13T01:51:41;99593.38;;;16.14;75.55
76594;BME280;65482;50.240;14.302;2023-10-13T01:54:08;99593.56;;;16.12;75.53
76594;BME280;65482;50.240;14.302;2023-10-13T01:56:38;99590.09;;;16.12;75.63
76594;BME280;65482;50.240;14.302;2023-10-13T01:59:09;99593.94;;;16.09;75.66
76594;BME280;65482;50.240;14.302;2023-10-13T02:01:35;99592.69;;;16.05;75.74
76594;BME280;65482;50.240;14.302;2023-10-13T02:04:01;99584.91;;;16.03;75.60
76594;BME280;65482;50.240;14.302;2023-10-13T02:06:30;99587.56;;;16.03;75.77
76594;BME280;65482;50.240;14.302;2023-10-13T02:09:08;99593.72;;;16.04;75.38
76594;BME280;65482;50.240;14.302;2023-10-13T02:11:38;99592.69;;;16.05;75.79
76594;BME280;65482;50.240;14.302;2023-10-13T02:14:04;99595.34;;;16.05;75.74
76594;BME280;65482;50.240;14.302;2023-10-13T02:16:29;99589.41;;;16.03;75.74
76594;BME280;65482;50.240;14.302;2023-10-13T02:18:59;99597.00;;;16.06;75.71
76594;BME280;65482;50.240;14.302;2023-10-13T02:21:33;99592.88;;;16.03;75.68
76594;BME280;65482;50.240;14.302;2023-10-13T02:24:00;99596.56;;;16.02;75.69
76594;BME280;65482;50.240;14.302;2023-10-13T02:26:30;99593.28;;;16.00;75.81
76594;BME280;65482;50.240;14.302;2023-10-13T02:28:58;99604.75;;;16.01;75.85
76594;BME280;65482;50.240;14.302;2023-10-13T02:31:26;99605.78;;;16.00;75.61
76594;BME280;65482;50.240;14.302;2023-10-13T02:33:52;99610.47;;;15.98;75.58
76594;BME280;65482;50.240;14.302;2023-10-13T02:36:18;99596.13;;;15.99;75.73
76594;BME280;65482;50.240;14.302;2023-10-13T02:38:49;99598.59;;;16.00;75.64
76594;BME280;65482;50.240;14.302;2023-10-13T02:41:20;99595.13;;;16.00;75.42
76594;BME280;65482;50.240;14.302;2023-10-13T02:43:52;99584.69;;;15.98;75.31
76594;BME280;65482;50.240;14.302;2023-10-13T02:46:22;99584.41;;;15.93;75.60
76594;BME280;65482;50.240;14.302;2023-10-13T02:48:49;99581.38;;;15.96;75.38
76594;BME280;65482;50.240;14.302;2023-10-13T02:51:22;99578.63;;;15.83;75.72
76594;BME280;65482;50.240;14.302;2023-10-13T02:53:57;99587.63;;;15.82;75.94
76594;BME280;65482;50.240;14.302;2023-10-13T02:56:28;99579.22;;;15.78;75.99
76594;BME280;65482;50.240;14.302;2023-10-13T02:58:55;99569.38;;;15.79;75.88
76594;BME280;65482;50.240;14.302;2023-10-13T03:01:31;99569.97;;;15.74;75.95
76594;BME280;65482;50.240;14.302;2023-10-13T03:04:00;99564.19;;;15.70;76.01
76594;BME280;65482;50.240;14.302;2023-10-13T03:06:27;99571.34;;;15.70;76.15
76594;BME280;65482;50.240;14.302;2023-10-13T03:09:00;99575.63;;;15.71;75.95
76594;BME280;65482;50.240;14.302;2023-10-13T03:11:39;99582.34;;;15.67;76.34
76594;BME280;65482;50.240;14.302;2023-10-13T03:14:11;99571.91;;;15.65;76.19
76594;BME280;65482;50.240;14.302;2023-10-13T03:16:53;99572.47;;;15.61;76.14
76594;BME280;65482;50.240;14.302;2023-10-13T03:19:19;99579.25;;;15.63;76.15
76594;BME280;65482;50.240;14.302;2023-10-13T03:21:46;99579.69;;;15.67;76.02
76594;BME280;65482;50.240;14.302;2023-10-13T03:24:21;99578.25;;;15.64;75.89
76594;BME280;65482;50.240;14.302;2023-10-13T03:27:00;99576.59;;;15.63;76.00
76594;BME280;65482;50.240;14.302;2023-10-13T03:29:43;99580.09;;;15.64;75.98
76594;BME280;65482;50.240;14.302;2023-10-13T03:32:13;99577.44;;;15.64;75.84
76594;BME280;65482;50.240;14.302;2023-10-13T03:34:41;99580.72;;;15.66;75.68
76594;BME280;65482;50.240;14.302;2023-10-13T03:37:18;99569.25;;;15.65;75.93
76594;BME280;65482;50.240;14.302;2023-10-13T03:39:45;99573.75;;;15.65;75.72
76594;BME280;65482;50.240;14.302;2023-10-13T03:42:11;99576.09;;;15.75;75.24
76594;BME280;65482;50.240;14.302;2023-10-13T03:44:47;99578.56;;;15.76;75.10
76594;BME280;65482;50.240;14.302;2023-10-13T03:47:14;99572.53;;;15.67;75.59
76594;BME280;65482;50.240;14.302;2023-10-13T03:49:53;99568.81;;;15.62;75.72
76594;BME280;65482;50.240;14.302;2023-10-13T03:52:39;99568.56;;;15.57;75.75
76594;BME280;65482;50.240;14.302;2023-10-13T03:55:04;99574.69;;;15.57;76.00
76594;BME280;65482;50.240;14.302;2023-10-13T03:57:31;99570.97;;;15.51;76.13
76594;BME280;65482;50.240;14.302;2023-10-13T04:00:03;99573.84;;;15.50;76.38
76594;BME280;65482;50.240;14.302;2023-10-13T04:02:34;99569.50;;;15.49;76.04
76594;BME280;65482;50.240;14.302;2023-10-13T04:05:02;99570.28;;;15.43;76.33
76594;BME280;65482;50.240;14.302;2023-10-13T04:07:34;99571.09;;;15.43;76.40
76594;BME280;65482;50.240;14.302;2023-10-13T04:10:00;99563.75;;;15.45;75.93
76594;BME280;65482;50.240;14.302;2023-10-13T04:13:01;99566.84;;;15.49;75.88
76594;BME280;65482;50.240;14.302;2023-10-13T04:15:46;99566.19;;;15.40;75.72
76594;BME280;65482;50.240;14.302;2023-10-13T04:18:31;99556.72;;;15.38;75.81
76594;BME280;65482;50.240;14.302;2023-10-13T04:21:12;99555.28;;;15.35;75.73
76594;BME280;65482;50.240;14.302;2023-10-13T04:24:01;99569.50;;;15.27;76.20
76594;BME280;65482;50.240;14.302;2023-10-13T04:26:47;99561.50;;;15.21;76.49
76594;BME280;65482;50.240;14.302;2023-10-13T04:29:31;99559.59;;;15.15;77.39
76594;BME280;65482;50.240;14.302;2023-10-13T04:32:12;99567.28;;;15.09;76.64
76594;BME280;65482;50.240;14.302;2023-10-13T04:34:44;99558.56;;;14.94;76.95
76594;BME280;65482;50.240;14.302;2023-10-13T04:37:12;99552.97;;;14.89;77.19
76594;BME280;65482;50.240;14.302;2023-10-13T04:39:58;99547.34;;;14.77;77.64
76594;BME280;65482;50.240;14.302;2023-10-13T04:42:37;99544.41;;;14.72;77.71
76594;BME280;65482;50.240;14.302;2023-10-13T04:45:16;99547.44;;;14.69;77.71
76594;BME280;65482;50.240;14.302;2023-10-13T04:48:02;99551.31;;;14.66;77.59
76594;BME280;65482;50.240;14.302;2023-10-13T04:50:52;99540.41;;;14.61;78.06
76594;BME280;65482;50.240;14.302;2023-10-13T04:53:41;99538.31;;;14.57;78.20
76594;BME280;65482;50.240;14.302;2023-10-13T04:56:25;99539.66;;;14.52;78.60
76594;BME280;65482;50.240;14.302;2023-10-13T04:59:06;99538.41;;;14.48;78.45
76594;BME280;65482;50.240;14.302;2023-10-13T05:02:01;99544.06;;;14.45;78.59
76594;BME280;65482;50.240;14.302;2023-10-13T05:04:45;99555.69;;;14.44;78.32
76594;BME280;65482;50.240;14.302;2023-10-13T05:07:29;99557.25;;;14.39;79.08
76594;BME280;65482;50.240;14.302;2023-10-13T05:10:14;99552.75;;;14.39;78.70
76594;BME280;65482;50.240;14.302;2023-10-13T05:12:58;99554.38;;;14.40;79.04
76594;BME280;65482;50.240;14.302;2023-10-13T05:15:50;99554.50;;;14.47;79.03
76594;BME280;65482;50.240;14.302;2023-10-13T05:18:35;99562.72;;;14.52;79.14
76594;BME280;65482;50.240;14.302;2023-10-13T05:21:20;99549.09;;;14.55;78.95
76594;BME280;65482;50.240;14.302;2023-10-13T05:24:04;99547.41;;;14.54;78.82
76594;BME280;65482;50.240;14.302;2023-10-13T05:27:00;99543.25;;;14.60;78.81
76594;BME280;65482;50.240;14.302;2023-10-13T05:29:47;99557.59;;;14.65;78.56
76594;BME280;65482;50.240;14.302;2023-10-13T05:32:32;99550.91;;;14.69;78.59
76594;BME280;65482;50.240;14.302;2023-10-13T05:35:16;99552.00;;;14.75;78.62
76594;BME280;65482;50.240;14.302;2023-10-13T05:38:01;99545.13;;;14.81;78.32
76594;BME280;65482;50.240;14.302;2023-10-13T05:40:56;99544.38;;;14.87;77.82
76594;BME280;65482;50.240;14.302;2023-10-13T05:43:41;99546.09;;;14.95;77.95
76594;BME280;65482;50.240;14.302;2023-10-13T05:46:25;99542.50;;;15.02;78.04
76594;BME280;65482;50.240;14.302;2023-10-13T05:48:52;99546.22;;;15.08;77.99
76594;BME280;65482;50.240;14.302;2023-10-13T05:51:28;99551.44;;;15.16;77.84
76594;BME280;65482;50.240;14.302;2023-10-13T05:54:15;99555.59;;;15.25;77.86
76594;BME280;65482;50.240;14.302;2023-10-13T05:56:51;99554.66;;;15.33;77.74
76594;BME280;65482;50.240;14.302;2023-10-13T05:59:39;99566.81;;;15.42;77.42
76594;BME280;65482;50.240;14.302;2023-10-13T06:02:29;99547.03;;;15.51;77.18
76594;BME280;65482;50.240;14.302;2023-10-13T06:05:14;99554.25;;;15.58;77.36
76594;BME280;65482;50.240;14.302;2023-10-13T06:07:58;99559.81;;;15.63;77.08
76594;BME280;65482;50.240;14.302;2023-10-13T06:10:42;99562.75;;;15.68;76.79
76594;BME280;65482;50.240;14.302;2023-10-13T06:13:27;99564.88;;;15.79;76.38
76594;BME280;65482;50.240;14.302;2023-10-13T06:16:13;99562.69;;;15.89;76.20
76594;BME280;65482;50.240;14.302;2023-10-13T06:18:58;99567.69;;;15.99;75.77
76594;BME280;65482;50.240;14.302;2023-10-13T06:21:43;99567.75;;;16.06;75.63
76594;BME280;65482;50.240;14.302;2023-10-13T06:24:28;99563.09;;;16.15;75.66
76594;BME280;65482;50.240;14.302;2023-10-13T06:27:13;99566.00;;;16.20;75.72
76594;BME280;65482;50.240;14.302;2023-10-13T06:29:57;99573.75;;;16.21;75.42
76594;BME280;65482;50.240;14.302;2023-10-13T06:32:23;99573.41;;;16.31;75.40
76594;BME280;65482;50.240;14.302;2023-10-13T06:34:52;99574.28;;;16.38;74.97
76594;BME280;65482;50.240;14.302;2023-10-13T06:37:26;99577.19;;;16.43;75.04
76594;BME280;65482;50.240;14.302;2023-10-13T06:39:59;99583.34;;;16.50;74.85
76594;BME280;65482;50.240;14.302;2023-10-13T06:42:31;99581.53;;;16.58;74.59
76594;BME280;65482;50.240;14.302;2023-10-13T06:45:00;99578.28;;;16.62;74.62
76594;BME280;65482;50.240;14.302;2023-10-13T06:47:34;99576.44;;;16.63;74.68
76594;BME280;65482;50.240;14.302;2023-10-13T06:50:09;99584.47;;;16.69;74.34
76594;BME280;65482;50.240;14.302;2023-10-13T06:53:33;99589.56;;;16.71;74.13
76594;BME280;65482;50.240;14.302;2023-10-13T06:56:28;99587.56;;;16.80;74.17
76594;BME280;65482;50.240;14.302;2023-10-13T06:59:11;99588.84;;;16.84;74.21
76594;BME280;65482;50.240;14.302;2023-10-13T07:01:55;99590.72;;;16.90;74.00
76594;BME280;65482;50.240;14.302;2023-10-13T07:04:51;99591.34;;;16.99;73.90
76594;BME280;65482;50.240;14.302;2023-10-13T07:07:23;99592.19;;;17.06;73.85
76594;BME280;65482;50.240;14.302;2023-10-13T07:09:49;99598.56;;;17.12;73.52
76594;BME280;65482;50.240;14.302;2023-10-13T07:12:54;99598.78;;;17.17;73.24
76594;BME280;65482;50.240;14.302;2023-10-13T07:15:34;99602.09;;;17.25;73.04
76594;BME280;65482;50.240;14.302;2023-10-13T07:22:01;99595.75;;;17.33;73.05
76594;BME280;65482;50.240;14.302;2023-10-13T07:24:50;99595.56;;;17.41;72.55
76594;BME280;65482;50.240;14.302;2023-10-13T07:27:32;99597.41;;;17.54;72.33
76594;BME280;65482;50.240;14.302;2023-10-13T07:30:01;99587.16;;;17.64;72.18
76594;BME280;65482;50.240;14.302;2023-10-13T07:35:21;99581.66;;;17.73;71.41
76594;BME280;65482;50.240;14.302;2023-10-13T07:38:22;99582.03;;;17.76;71.52
76594;BME280;65482;50.240;14.302;2023-10-13T07:41:18;99586.38;;;17.84;71.40
76594;BME280;65482;50.240;14.302;2023-10-13T07:43:47;99582.25;;;17.88;71.21
76594;BME280;65482;50.240;14.302;2023-10-13T07:46:17;99581.66;;;17.99;71.13
76594;BME280;65482;50.240;14.302;2023-10-13T07:48:57;99580.19;;;18.10;70.87
76594;BME280;65482;50.240;14.302;2023-10-13T07:51:40;99573.00;;;18.17;70.67
76594;BME280;65482;50.240;14.302;2023-10-13T07:54:15;99577.09;;;18.20;70.24
76594;BME280;65482;50.240;14.302;2023-10-13T07:56:48;99577.91;;;18.27;70.24
76594;BME280;65482;50.240;14.302;2023-10-13T07:59:18;99566.78;;;18.30;70.13
76594;BME280;65482;50.240;14.302;2023-10-13T08:01:50;99563.72;;;18.33;70.09
76594;BME280;65482;50.240;14.302;2023-10-13T08:04:38;99561.81;;;18.47;69.68
76594;BME280;65482;50.240;14.302;2023-10-13T08:07:04;99571.03;;;18.64;69.16
76594;BME280;65482;50.240;14.302;2023-10-13T08:09:40;99571.19;;;18.76;68.85
76594;BME280;65482;50.240;14.302;2023-10-13T08:12:07;99570.97;;;18.84;68.37
76594;BME280;65482;50.240;14.302;2023-10-13T08:14:38;99574.84;;;18.88;68.58
76594;BME280;65482;50.240;14.302;2023-10-13T08:17:07;99576.06;;;18.93;68.38
76594;BME280;65482;50.240;14.302;2023-10-13T08:19:36;99576.22;;;18.98;68.15
76594;BME280;65482;50.240;14.302;2023-10-13T08:22:12;99572.53;;;18.99;68.00
76594;BME280;65482;50.240;14.302;2023-10-13T08:24:45;99570.00;;;19.11;67.68
76594;BME280;65482;50.240;14.302;2023-10-13T08:27:13;99562.31;;;19.21;67.76
76594;BME280;65482;50.240;14.302;2023-10-13T08:29:57;99560.66;;;19.26;66.68
76594;BME280;65482;50.240;14.302;2023-10-13T08:34:56;99548.22;;;19.39;65.40
76594;BME280;65482;50.240;14.302;2023-10-13T08:37:34;99544.25;;;19.48;64.90
76594;BME280;65482;50.240;14.302;2023-10-13T08:40:31;99541.06;;;19.58;65.23
76594;BME280;65482;50.240;14.302;2023-10-13T08:43:23;99534.59;;;19.72;65.55
76594;BME280;65482;50.240;14.302;2023-10-13T08:45:49;99538.34;;;19.90;64.74
76594;BME280;65482;50.240;14.302;2023-10-13T08:48:26;99538.19;;;20.03;63.80
76594;BME280;65482;50.240;14.302;2023-10-13T08:52:10;99548.72;;;20.23;64.01
76594;BME280;65482;50.240;14.302;2023-10-13T08:55:33;99549.25;;;20.32;63.04
76594;BME280;65482;50.240;14.302;2023-10-13T08:58:46;99549.09;;;20.63;63.35
76594;BME280;65482;50.240;14.302;2023-10-13T09:05:01;99542.00;;;20.88;62.07
76594;BME280;65482;50.240;14.302;2023-10-13T09:08:05;99539.56;;;20.98;61.36
76594;BME280;65482;50.240;14.302;2023-10-13T09:11:12;99533.19;;;21.11;61.30
76594;BME280;65482;50.240;14.302;2023-10-13T09:13:46;99536.25;;;21.14;60.91
76594;BME280;65482;50.240;14.302;2023-10-13T09:16:17;99542.78;;;21.18;61.18
76594;BME280;65482;50.240;14.302;2023-10-13T09:20:03;99537.53;;;21.12;61.38
76594;BME280;65482;50.240;14.302;2023-10-13T09:23:12;99539.28;;;21.18;60.46
76594;BME280;65482;50.240;14.302;2023-10-13T09:28:45;99541.84;;;21.24;60.38
76594;BME280;65482;50.240;14.302;2023-10-13T09:31:30;99538.97;;;21.38;60.47
76594;BME280;65482;50.240;14.302;2023-10-13T09:34:01;99539.97;;;21.55;59.21
76594;BME280;65482;50.240;14.302;2023-10-13T09:40:59;99530.28;;;22.01;58.44
76594;BME280;65482;50.240;14.302;2023-10-13T09:51:41;99517.00;;;21.83;58.08
76594;BME280;65482;50.240;14.302;2023-10-13T09:54:40;99520.72;;;21.82;58.16
76594;BME280;65482;50.240;14.302;2023-10-13T10:08:36;99508.38;;;21.69;59.03
76594;BME280;65482;50.240;14.302;2023-10-13T10:37:32;99481.78;;;22.20;57.64
76594;BME280;65482;50.240;14.302;2023-10-13T10:40:15;99480.63;;;22.28;57.56
76594;BME280;65482;50.240;14.302;2023-10-13T10:43:14;99483.06;;;22.41;57.40
76594;BME280;65482;50.240;14.302;2023-10-13T10:45:47;99479.75;;;22.51;56.07
76594;BME280;65482;50.240;14.302;2023-10-13T10:48:14;99474.28;;;22.74;55.97
76594;BME280;65482;50.240;14.302;2023-10-13T10:50:51;99472.09;;;22.88;54.64
76594;BME280;65482;50.240;14.302;2023-10-13T10:53:23;99455.63;;;22.84;53.09
76594;BME280;65482;50.240;14.302;2023-10-13T10:56:09;99458.72;;;22.93;54.04
76594;BME280;65482;50.240;14.302;2023-10-13T10:59:07;99455.22;;;22.93;54.17
76594;BME280;65482;50.240;14.302;2023-10-13T11:02:03;99449.91;;;22.81;53.89
76594;BME280;65482;50.240;14.302;2023-10-13T11:05:07;99450.31;;;22.73;53.98
76594;BME280;65482;50.240;14.302;2023-10-13T11:08:08;99447.22;;;22.81;53.80
76594;BME280;65482;50.240;14.302;2023-10-13T11:15:00;99437.72;;;22.90;53.66
76594;BME280;65482;50.240;14.302;2023-10-13T11:18:08;99441.38;;;23.01;54.30
76594;BME280;65482;50.240;14.302;2023-10-13T11:20:58;99438.97;;;23.16;52.67
76594;BME280;65482;50.240;14.302;2023-10-13T11:24:02;99424.53;;;23.22;51.38
76594;BME280;65482;50.240;14.302;2023-10-13T11:34:14;99413.59;;;23.29;51.49
76594;BME280;65482;50.240;14.302;2023-10-13T11:36:43;99410.50;;;23.20;51.52
76594;BME280;65482;50.240;14.302;2023-10-13T11:39:17;99402.03;;;23.12;51.28
76594;BME280;65482;50.240;14.302;2023-10-13T11:41:52;99394.13;;;23.05;51.58
76594;BME280;65482;50.240;14.302;2023-10-13T11:44:41;99391.00;;;22.96;51.39
76594;BME280;65482;50.240;14.302;2023-10-13T11:47:29;99387.72;;;23.06;51.37
76594;BME280;65482;50.240;14.302;2023-10-13T11:50:13;99387.19;;;23.26;51.15
76594;BME280;65482;50.240;14.302;2023-10-13T11:52:48;99378.50;;;23.41;50.82
76594;BME280;65482;50.240;14.302;2023-10-13T11:55:46;99381.28;;;23.46;49.72
76594;BME280;65482;50.240;14.302;2023-10-13T12:01:15;99380.75;;;23.66;50.58
76594;BME280;65482;50.240;14.302;2023-10-13T12:03:46;99361.66;;;23.68;50.42
76594;BME280;65482;50.240;14.302;2023-10-13T12:06:40;99362.13;;;23.65;49.07
76594;BME280;65482;50.240;14.302;2023-10-13T12:09:30;99355.63;;;23.60;50.69
76594;BME280;65482;50.240;14.302;2023-10-13T12:12:25;99356.31;;;23.51;50.07
76594;BME280;65482;50.240;14.302;2023-10-13T12:15:19;99353.28;;;23.47;50.78
76594;BME280;65482;50.240;14.302;2023-10-13T12:18:13;99343.75;;;23.39;51.09
76594;BME280;65482;50.240;14.302;2023-10-13T12:20:46;99341.16;;;23.45;51.10
76594;BME280;65482;50.240;14.302;2023-10-13T12:26:33;99336.00;;;23.43;51.11
76594;BME280;65482;50.240;14.302;2023-10-13T12:29:03;99338.47;;;23.45;51.00
76594;BME280;65482;50.240;14.302;2023-10-13T12:31:35;99329.94;;;23.53;50.61
76594;BME280;65482;50.240;14.302;2023-10-13T12:34:04;99328.91;;;23.54;47.79
76594;BME280;65482;50.240;14.302;2023-10-13T12:36:39;99324.38;;;23.59;48.50
76594;BME280;65482;50.240;14.302;2023-10-13T12:39:18;99331.06;;;23.57;46.75
76594;BME280;65482;50.240;14.302;2023-10-13T12:42:03;99316.38;;;23.65;47.58
76594;BME280;65482;50.240;14.302;2023-10-13T12:44:47;99321.56;;;23.71;47.65
76594;BME280;65482;50.240;14.302;2023-10-13T12:47:31;99307.81;;;23.68;48.00
76594;BME280;65482;50.240;14.302;2023-10-13T12:50:15;99320.31;;;23.79;45.60
76594;BME280;65482;50.240;14.302;2023-10-13T12:52:59;99307.50;;;23.86;45.50
76594;BME280;65482;50.240;14.302;2023-10-13T12:55:25;99300.88;;;23.99;45.16
76594;BME280;65482;50.240;14.302;2023-10-13T12:57:51;99297.53;;;24.14;43.52
76594;BME280;65482;50.240;14.302;2023-10-13T13:00:16;99288.53;;;24.30;41.99
76594;BME280;65482;50.240;14.302;2023-10-13T13:02:47;99292.56;;;24.33;43.29
76594;BME280;65482;50.240;14.302;2023-10-13T13:05:16;99286.69;;;24.36;43.20
76594;BME280;65482;50.240;14.302;2023-10-13T13:07:41;99284.56;;;24.38;42.58
76594;BME280;65482;50.240;14.302;2023-10-13T13:10:14;99272.09;;;24.32;41.90
76594;BME280;65482;50.240;14.302;2023-10-13T13:12:41;99269.91;;;24.29;42.04
76594;BME280;65482;50.240;14.302;2023-10-13T13:15:07;99258.09;;;24.35;42.20
76594;BME280;65482;50.240;14.302;2023-10-13T13:17:37;99266.53;;;24.44;41.98
76594;BME280;65482;50.240;14.302;2023-10-13T13:20:08;99253.41;;;24.52;41.52
76594;BME280;65482;50.240;14.302;2023-10-13T13:22:38;99252.06;;;24.55;40.12
76594;BME280;65482;50.240;14.302;2023-10-13T13:25:04;99255.97;;;24.69;40.28
76594;BME280;65482;50.240;14.302;2023-10-13T13:27:33;99232.53;;;24.75;39.11
76594;BME280;65482;50.240;14.302;2023-10-13T13:29:59;99230.09;;;24.73;40.63
76594;BME280;65482;50.240;14.302;2023-10-13T13:32:26;99230.38;;;24.72;40.63
76594;BME280;65482;50.240;14.302;2023-10-13T13:34:54;99227.06;;;24.59;40.63
76594;BME280;65482;50.240;14.302;2023-10-13T13:37:22;99222.56;;;24.43;41.76
76594;BME280;65482;50.240;14.302;2023-10-13T13:39:48;99220.84;;;24.27;40.91
76594;BME280;65482;50.240;14.302;2023-10-13T13:42:22;99215.16;;;24.23;41.41
76594;BME280;65482;50.240;14.302;2023-10-13T13:45:18;99205.38;;;24.12;41.64
76594;BME280;65482;50.240;14.302;2023-10-13T13:47:51;99203.75;;;24.11;42.00
76594;BME280;65482;50.240;14.302;2023-10-13T13:50:23;99200.25;;;24.10;42.00
76594;BME280;65482;50.240;14.302;2023-10-13T13:52:53;99190.50;;;24.04;42.30
76594;BME280;65482;50.240;14.302;2023-10-13T13:55:25;99192.56;;;23.97;42.42
76594;BME280;65482;50.240;14.302;2023-10-13T13:57:57;99185.31;;;23.97;42.22
76594;BME280;65482;50.240;14.302;2023-10-13T14:00:23;99181.50;;;23.93;42.64
76594;BME280;65482;50.240;14.302;2023-10-13T14:03:06;99177.75;;;23.94;42.35
76594;BME280;65482;50.240;14.302;2023-10-13T14:05:42;99175.94;;;24.05;42.16
76594;BME280;65482;50.240;14.302;2023-10-13T14:08:08;99174.63;;;24.08;42.01
76594;BME280;65482;50.240;14.302;2023-10-13T14:10:38;99169.56;;;24.16;41.78
76594;BME280;65482;50.240;14.302;2023-10-13T14:13:22;99175.75;;;24.12;41.34
76594;BME280;65482;50.240;14.302;2023-10-13T14:16:08;99159.66;;;24.22;40.98
76594;BME280;65482;50.240;14.302;2023-10-13T14:18:48;99163.44;;;24.26;41.29
76594;BME280;65482;50.240;14.302;2023-10-13T14:21:16;99155.63;;;24.25;40.05
76594;BME280;65482;50.240;14.302;2023-10-13T14:26:15;99151.69;;;24.42;38.79
76594;BME280;65482;50.240;14.302;2023-10-13T14:28:45;99140.66;;;24.44;38.21
76594;BME280;65482;50.240;14.302;2023-10-13T14:31:28;99138.75;;;24.39;37.45
76594;BME280;65482;50.240;14.302;2023-10-13T14:33:54;99141.94;;;24.36;37.50
76594;BME280;65482;50.240;14.302;2023-10-13T14:36:21;99144.38;;;24.38;37.49
76594;BME280;65482;50.240;14.302;2023-10-13T14:38:47;99139.22;;;24.31;36.36
76594;BME280;65482;50.240;14.302;2023-10-13T14:41:18;99129.25;;;24.32;35.93
76594;BME280;65482;50.240;14.302;2023-10-13T14:43:45;99127.38;;;24.32;35.95
76594;BME280;65482;50.240;14.302;2023-10-13T14:46:20;99121.38;;;24.25;35.82
76594;BME280;65482;50.240;14.302;2023-10-13T14:48:52;99124.06;;;24.20;36.20
76594;BME280;65482;50.240;14.302;2023-10-13T14:51:18;99127.25;;;24.12;36.51
76594;BME280;65482;50.240;14.302;2023-10-13T14:53:46;99120.44;;;24.04;36.93
76594;BME280;65482;50.240;14.302;2023-10-13T14:56:15;99122.28;;;23.98;37.39
76594;BME280;65482;50.240;14.302;2023-10-13T14:58:42;99127.06;;;23.91;37.65
76594;BME280;65482;50.240;14.302;2023-10-13T15:01:17;99118.66;;;23.82;37.42
76594;BME280;65482;50.240;14.302;2023-10-13T15:03:45;99118.59;;;23.77;38.13
76594;BME280;65482;50.240;14.302;2023-10-13T15:06:21;99116.66;;;23.73;38.62
76594;BME280;65482;50.240;14.302;2023-10-13T15:08:52;99110.16;;;23.63;38.98